Detalii statie Girov TCE 3 BRAZI [000011A2]

Condiții climatice - Boli

Date Temperatura solului [C]Precipitatii [mm]HC Air temperature [C]HC Relative humidity [%]
medieminmaxsumamedieminmaxmedie
2020-06-02 07:00:00 0 8.95 8.05 9.97 100
2020-06-02 08:00:00 0 12.21 10.63 13.6 100
2020-06-02 09:00:00 0 13.26 12.7 14.21 100
2020-06-02 10:00:00 0 14.86 13.17 16.74 100
2020-06-02 11:00:00 0 15.37 14.18 16.41 100
2020-06-02 12:00:00 0 15.54 14.67 16.84 99.89
2020-06-02 13:00:00 0 15.73 14.9 16.47 99.95
2020-06-02 14:00:00 0 15.94 14.87 16.82 100
2020-06-02 15:00:00 0 17.3 15.75 19.65 100
2020-06-02 16:00:00 0 17.97 16.29 20.32 99.69
2020-06-02 17:00:00 0 17.78 16.29 18.73 99.08
2020-06-02 18:00:00 0 14.99 14.55 15.97 100
2020-06-02 19:00:00 0 14.41 13.79 15.18 100
2020-06-02 20:00:00 0 13.26 12.85 13.89 100
2020-06-02 21:00:00 2.2 10.4 9 12.9 100
2020-06-02 22:00:00 1.2 8.71 8.58 8.91 100
2020-06-02 23:00:00 0 8.36 8.19 8.55 100
2020-06-03 00:00:00 0.2 7.65 7.32 8.07 100
2020-06-03 01:00:00 0 6.92 6.42 7.32 100
2020-06-03 02:00:00 0 6.72 6.38 6.98 100
2020-06-03 03:00:00 0 6.9 6.65 7.13 100
2020-06-03 04:00:00 0 6.39 5.96 6.72 100
2020-06-03 05:00:00 0 6.73 6.43 7.05 100
2020-06-03 06:00:00 0 7.28 7.13 7.41 100
2020-06-03 07:00:00 0 8.58 7.5 9.43 100
2020-06-03 08:00:00 0 9.5 8.71 10.29 100
2020-06-03 09:00:00 0 12.05 10.37 13.59 100
2020-06-03 10:00:00 0 13.21 12.83 14 100
2020-06-03 11:00:00 0 13.08 12.64 14.4 100
2020-06-03 12:00:00 0 16.74 15.09 17.46 100
2020-06-03 13:00:00 0 18.39 17.5 19.52 100
2020-06-03 14:00:00 0 19.02 17.75 21.33 99.96
2020-06-03 15:00:00 0 17.02 16.6 17.81 100
2020-06-03 16:00:00 0 17.02 16.5 17.73 100
2020-06-03 17:00:00 0 18.45 17.32 19.32 100
2020-06-03 18:00:00 0 17.02 15.8 18.61 100
2020-06-03 19:00:00 0 15.71 15.28 15.93 100
2020-06-03 20:00:00 0 14.53 14.16 15.31 100
2020-06-03 21:00:00 0 13.04 11.93 14.11 100
2020-06-03 22:00:00 0 11.03 10.09 11.73 100
2020-06-03 23:00:00 0 8.92 8 9.74 100
2020-06-04 00:00:00 0 7.85 7.44 8.31 100
2020-06-04 01:00:00 0 7.46 7.05 7.81 100
2020-06-04 02:00:00 0 7.14 6.9 7.66 100
2020-06-04 03:00:00 0 6.2 5.71 6.92 100
2020-06-04 04:00:00 0 5.61 5.34 6.1 100
2020-06-04 05:00:00 0 5.49 5.11 6.12 100
2020-06-04 06:00:00 0 5.27 4.85 5.76 100